sensor_id;sensor_type;location;lat;lon;timestamp;P1;durP1;ratioP1;P2;durP2;ratioP2
29570;SDS011;16814;52.118;11.436;2024-02-15T00:00:56;3.90;;;3.10;;
29570;SDS011;16814;52.118;11.436;2024-02-15T00:03:25;3.72;;;3.38;;
29570;SDS011;16814;52.118;11.436;2024-02-15T00:05:53;4.00;;;3.47;;
29570;SDS011;16814;52.118;11.436;2024-02-15T00:08:21;5.53;;;3.50;;
29570;SDS011;16814;52.118;11.436;2024-02-15T00:10:52;5.40;;;3.60;;
29570;SDS011;16814;52.118;11.436;2024-02-15T00:13:18;6.50;;;4.20;;
29570;SDS011;16814;52.118;11.436;2024-02-15T00:15:45;5.72;;;3.88;;
29570;SDS011;16814;52.118;11.436;2024-02-15T00:18:16;5.75;;;4.00;;
29570;SDS011;16814;52.118;11.436;2024-02-15T00:20:42;5.00;;;3.70;;
29570;SDS011;16814;52.118;11.436;2024-02-15T00:23:10;5.43;;;4.20;;
29570;SDS011;16814;52.118;11.436;2024-02-15T00:25:36;7.00;;;4.60;;
29570;SDS011;16814;52.118;11.436;2024-02-15T00:28:04;8.30;;;4.63;;
29570;SDS011;16814;52.118;11.436;2024-02-15T00:30:33;6.50;;;4.60;;
29570;SDS011;16814;52.118;11.436;2024-02-15T00:33:00;6.70;;;4.20;;
29570;SDS011;16814;52.118;11.436;2024-02-15T00:35:29;6.63;;;4.25;;
29570;SDS011;16814;52.118;11.436;2024-02-15T00:37:57;6.25;;;4.30;;
29570;SDS011;16814;52.118;11.436;2024-02-15T00:40:26;5.28;;;4.25;;
29570;SDS011;16814;52.118;11.436;2024-02-15T00:42:53;6.28;;;4.78;;
29570;SDS011;16814;52.118;11.436;2024-02-15T00:45:20;5.72;;;4.47;;
29570;SDS011;16814;52.118;11.436;2024-02-15T00:47:46;6.60;;;4.10;;
29570;SDS011;16814;52.118;11.436;2024-02-15T00:50:14;5.85;;;4.00;;
29570;SDS011;16814;52.118;11.436;2024-02-15T00:52:42;6.75;;;4.05;;
29570;SDS011;16814;52.118;11.436;2024-02-15T00:55:09;6.80;;;4.28;;
29570;SDS011;16814;52.118;11.436;2024-02-15T00:57:38;4.32;;;3.92;;
29570;SDS011;16814;52.118;11.436;2024-02-15T01:00:06;4.40;;;4.00;;
29570;SDS011;16814;52.118;11.436;2024-02-15T01:02:35;4.72;;;4.05;;
29570;SDS011;16814;52.118;11.436;2024-02-15T01:05:08;6.22;;;3.47;;
29570;SDS011;16814;52.118;11.436;2024-02-15T01:07:36;5.10;;;3.63;;
29570;SDS011;16814;52.118;11.436;2024-02-15T01:10:06;6.22;;;3.53;;
29570;SDS011;16814;52.118;11.436;2024-02-15T01:12:32;6.25;;;3.63;;
29570;SDS011;16814;52.118;11.436;2024-02-15T01:14:59;5.95;;;3.60;;
29570;SDS011;16814;52.118;11.436;2024-02-15T01:17:28;5.80;;;3.30;;
29570;SDS011;16814;52.118;11.436;2024-02-15T01:19:55;5.53;;;3.40;;
29570;SDS011;16814;52.118;11.436;2024-02-15T01:22:21;5.77;;;3.03;;
29570;SDS011;16814;52.118;11.436;2024-02-15T01:24:52;4.78;;;3.25;;
29570;SDS011;16814;52.118;11.436;2024-02-15T01:27:19;5.22;;;3.30;;
29570;SDS011;16814;52.118;11.436;2024-02-15T01:29:46;6.50;;;3.60;;
29570;SDS011;16814;52.118;11.436;2024-02-15T01:32:14;9.13;;;3.63;;
29570;SDS011;16814;52.118;11.436;2024-02-15T01:34:42;6.18;;;3.65;;
29570;SDS011;16814;52.118;11.436;2024-02-15T01:37:12;6.30;;;3.20;;
29570;SDS011;16814;52.118;11.436;2024-02-15T01:39:38;4.47;;;3.40;;
29570;SDS011;16814;52.118;11.436;2024-02-15T01:42:05;5.53;;;3.30;;
29570;SDS011;16814;52.118;11.436;2024-02-15T01:44:31;4.93;;;3.28;;
29570;SDS011;16814;52.118;11.436;2024-02-15T01:46:56;4.05;;;3.15;;
29570;SDS011;16814;52.118;11.436;2024-02-15T01:49:26;5.10;;;3.20;;
29570;SDS011;16814;52.118;11.436;2024-02-15T01:51:55;5.82;;;3.35;;
29570;SDS011;16814;52.118;11.436;2024-02-15T01:54:23;5.43;;;3.17;;
29570;SDS011;16814;52.118;11.436;2024-02-15T01:56:53;4.87;;;3.30;;
29570;SDS011;16814;52.118;11.436;2024-02-15T01:59:22;5.50;;;3.30;;
29570;SDS011;16814;52.118;11.436;2024-02-15T02:01:50;4.22;;;3.10;;
29570;SDS011;16814;52.118;11.436;2024-02-15T02:04:17;5.67;;;3.37;;
29570;SDS011;16814;52.118;11.436;2024-02-15T02:06:43;5.53;;;3.03;;
29570;SDS011;16814;52.118;11.436;2024-02-15T02:09:15;6.23;;;3.10;;
29570;SDS011;16814;52.118;11.436;2024-02-15T02:11:44;7.88;;;3.20;;
29570;SDS011;16814;52.118;11.436;2024-02-15T02:14:12;6.63;;;3.10;;
29570;SDS011;16814;52.118;11.436;2024-02-15T02:16:38;3.83;;;2.75;;
29570;SDS011;16814;52.118;11.436;2024-02-15T02:19:06;4.47;;;2.40;;
29570;SDS011;16814;52.118;11.436;2024-02-15T02:21:36;3.08;;;2.50;;
29570;SDS011;16814;52.118;11.436;2024-02-15T02:24:08;6.47;;;2.70;;
29570;SDS011;16814;52.118;11.436;2024-02-15T02:26:44;3.60;;;2.33;;
29570;SDS011;16814;52.118;11.436;2024-02-15T02:29:12;5.13;;;2.70;;
29570;SDS011;16814;52.118;11.436;2024-02-15T02:31:40;4.10;;;2.67;;
29570;SDS011;16814;52.118;11.436;2024-02-15T02:34:10;4.68;;;2.63;;
29570;SDS011;16814;52.118;11.436;2024-02-15T02:36:39;5.07;;;2.78;;
29570;SDS011;16814;52.118;11.436;2024-02-15T02:39:07;5.00;;;2.90;;
29570;SDS011;16814;52.118;11.436;2024-02-15T02:41:35;5.43;;;2.67;;
29570;SDS011;16814;52.118;11.436;2024-02-15T02:44:03;3.43;;;2.40;;
29570;SDS011;16814;52.118;11.436;2024-02-15T02:46:35;3.23;;;2.70;;
29570;SDS011;16814;52.118;11.436;2024-02-15T02:49:01;4.45;;;2.70;;
29570;SDS011;16814;52.118;11.436;2024-02-15T02:51:28;8.30;;;2.75;;
29570;SDS011;16814;52.118;11.436;2024-02-15T02:53:56;4.50;;;2.70;;
29570;SDS011;16814;52.118;11.436;2024-02-15T02:56:25;8.13;;;4.10;;
29570;SDS011;16814;52.118;11.436;2024-02-15T02:58:51;5.93;;;2.80;;
29570;SDS011;16814;52.118;11.436;2024-02-15T03:01:22;4.88;;;2.60;;
29570;SDS011;16814;52.118;11.436;2024-02-15T03:03:55;6.25;;;2.45;;
29570;SDS011;16814;52.118;11.436;2024-02-15T03:06:24;5.35;;;2.17;;
29570;SDS011;16814;52.118;11.436;2024-02-15T03:08:51;5.50;;;2.65;;
29570;SDS011;16814;52.118;11.436;2024-02-15T03:11:22;5.68;;;2.58;;
29570;SDS011;16814;52.118;11.436;2024-02-15T03:13:51;8.48;;;2.75;;
29570;SDS011;16814;52.118;11.436;2024-02-15T03:16:21;3.80;;;2.60;;
29570;SDS011;16814;52.118;11.436;2024-02-15T03:18:51;9.88;;;2.78;;
29570;SDS011;16814;52.118;11.436;2024-02-15T03:21:18;5.80;;;2.50;;
29570;SDS011;16814;52.118;11.436;2024-02-15T03:23:47;6.73;;;2.50;;
29570;SDS011;16814;52.118;11.436;2024-02-15T03:26:13;3.50;;;2.50;;
29570;SDS011;16814;52.118;11.436;2024-02-15T03:28:41;4.90;;;2.58;;
29570;SDS011;16814;52.118;11.436;2024-02-15T03:31:07;4.85;;;3.03;;
29570;SDS011;16814;52.118;11.436;2024-02-15T03:33:35;6.63;;;2.88;;
29570;SDS011;16814;52.118;11.436;2024-02-15T03:36:06;6.90;;;2.53;;
29570;SDS011;16814;52.118;11.436;2024-02-15T03:38:35;4.93;;;2.70;;
29570;SDS011;16814;52.118;11.436;2024-02-15T03:41:02;5.53;;;2.60;;
29570;SDS011;16814;52.118;11.436;2024-02-15T03:43:34;4.15;;;2.72;;
29570;SDS011;16814;52.118;11.436;2024-02-15T03:46:02;4.43;;;2.60;;
29570;SDS011;16814;52.118;11.436;2024-02-15T03:48:29;4.88;;;2.72;;
29570;SDS011;16814;52.118;11.436;2024-02-15T03:50:59;2.92;;;2.30;;
29570;SDS011;16814;52.118;11.436;2024-02-15T03:53:25;3.53;;;2.30;;
29570;SDS011;16814;52.118;11.436;2024-02-15T03:55:51;5.15;;;2.53;;
29570;SDS011;16814;52.118;11.436;2024-02-15T03:58:19;4.45;;;2.60;;
29570;SDS011;16814;52.118;11.436;2024-02-15T04:00:47;4.28;;;2.60;;
29570;SDS011;16814;52.118;11.436;2024-02-15T04:03:14;6.55;;;2.40;;
29570;SDS011;16814;52.118;11.436;2024-02-15T04:05:44;5.43;;;2.60;;
29570;SDS011;16814;52.118;11.436;2024-02-15T04:08:11;4.17;;;2.37;;
29570;SDS011;16814;52.118;11.436;2024-02-15T04:10:42;3.90;;;2.40;;
29570;SDS011;16814;52.118;11.436;2024-02-15T04:13:12;5.55;;;2.35;;
29570;SDS011;16814;52.118;11.436;2024-02-15T04:15:41;6.60;;;2.15;;
29570;SDS011;16814;52.118;11.436;2024-02-15T04:18:10;9.95;;;2.85;;
29570;SDS011;16814;52.118;11.436;2024-02-15T04:20:40;2.97;;;2.00;;
29570;SDS011;16814;52.118;11.436;2024-02-15T04:23:10;3.75;;;2.40;;
29570;SDS011;16814;52.118;11.436;2024-02-15T04:25:39;4.57;;;2.10;;
29570;SDS011;16814;52.118;11.436;2024-02-15T04:28:22;4.10;;;1.90;;
29570;SDS011;16814;52.118;11.436;2024-02-15T04:30:49;4.25;;;2.10;;
29570;SDS011;16814;52.118;11.436;2024-02-15T04:33:15;4.30;;;1.90;;
29570;SDS011;16814;52.118;11.436;2024-02-15T04:35:41;6.03;;;2.13;;
29570;SDS011;16814;52.118;11.436;2024-02-15T04:38:10;2.20;;;1.88;;
29570;SDS011;16814;52.118;11.436;2024-02-15T04:40:38;4.78;;;1.90;;
29570;SDS011;16814;52.118;11.436;2024-02-15T04:43:07;6.13;;;2.00;;
29570;SDS011;16814;52.118;11.436;2024-02-15T04:45:34;6.40;;;2.30;;
29570;SDS011;16814;52.118;11.436;2024-02-15T04:48:03;4.28;;;2.20;;
29570;SDS011;16814;52.118;11.436;2024-02-15T04:50:33;6.43;;;2.33;;
29570;SDS011;16814;52.118;11.436;2024-02-15T04:53:01;5.20;;;2.25;;
29570;SDS011;16814;52.118;11.436;2024-02-15T04:55:29;3.50;;;2.42;;
29570;SDS011;16814;52.118;11.436;2024-02-15T04:57:57;5.90;;;2.30;;
29570;SDS011;16814;52.118;11.436;2024-02-15T05:00:26;2.30;;;2.00;;
29570;SDS011;16814;52.118;11.436;2024-02-15T05:02:57;4.70;;;2.50;;
29570;SDS011;16814;52.118;11.436;2024-02-15T05:05:25;9.38;;;2.60;;
29570;SDS011;16814;52.118;11.436;2024-02-15T05:07:55;5.17;;;2.30;;
29570;SDS011;16814;52.118;11.436;2024-02-15T05:10:23;3.53;;;2.30;;
29570;SDS011;16814;52.118;11.436;2024-02-15T05:12:51;5.10;;;2.58;;
29570;SDS011;16814;52.118;11.436;2024-02-15T05:15:21;3.50;;;2.08;;
29570;SDS011;16814;52.118;11.436;2024-02-15T05:18:00;10.48;;;2.55;;
29570;SDS011;16814;52.118;11.436;2024-02-15T05:20:29;5.93;;;2.20;;
29570;SDS011;16814;52.118;11.436;2024-02-15T05:22:56;2.90;;;1.92;;
29570;SDS011;16814;52.118;11.436;2024-02-15T05:25:23;6.88;;;2.25;;
29570;SDS011;16814;52.118;11.436;2024-02-15T05:27:54;4.97;;;1.90;;
29570;SDS011;16814;52.118;11.436;2024-02-15T05:30:21;3.17;;;2.30;;
29570;SDS011;16814;52.118;11.436;2024-02-15T05:32:48;5.93;;;2.40;;
29570;SDS011;16814;52.118;11.436;2024-02-15T05:35:15;6.47;;;2.40;;
29570;SDS011;16814;52.118;11.436;2024-02-15T05:37:45;5.82;;;2.58;;
29570;SDS011;16814;52.118;11.436;2024-02-15T05:40:11;4.77;;;2.37;;
29570;SDS011;16814;52.118;11.436;2024-02-15T05:42:43;4.28;;;2.60;;
29570;SDS011;16814;52.118;11.436;2024-02-15T05:45:30;3.88;;;2.88;;
29570;SDS011;16814;52.118;11.436;2024-02-15T05:48:04;4.07;;;2.90;;
29570;SDS011;16814;52.118;11.436;2024-02-15T05:50:34;4.17;;;2.93;;
29570;SDS011;16814;52.118;11.436;2024-02-15T05:53:08;7.15;;;3.00;;
29570;SDS011;16814;52.118;11.436;2024-02-15T05:55:35;4.63;;;3.00;;
29570;SDS011;16814;52.118;11.436;2024-02-15T05:58:06;4.18;;;2.90;;
29570;SDS011;16814;52.118;11.436;2024-02-15T06:00:37;3.90;;;2.58;;
29570;SDS011;16814;52.118;11.436;2024-02-15T06:03:04;3.80;;;3.30;;
29570;SDS011;16814;52.118;11.436;2024-02-15T06:05:34;3.83;;;2.88;;
29570;SDS011;16814;52.118;11.436;2024-02-15T06:08:00;3.63;;;2.55;;
29570;SDS011;16814;52.118;11.436;2024-02-15T06:10:28;6.17;;;2.80;;
29570;SDS011;16814;52.118;11.436;2024-02-15T06:12:56;3.20;;;2.60;;
29570;SDS011;16814;52.118;11.436;2024-02-15T06:15:25;7.30;;;3.23;;
29570;SDS011;16814;52.118;11.436;2024-02-15T06:18:13;4.07;;;2.73;;
29570;SDS011;16814;52.118;11.436;2024-02-15T06:20:41;4.70;;;3.00;;
29570;SDS011;16814;52.118;11.436;2024-02-15T06:23:27;7.93;;;2.72;;
29570;SDS011;16814;52.118;11.436;2024-02-15T06:25:53;4.82;;;2.88;;
29570;SDS011;16814;52.118;11.436;2024-02-15T06:28:23;6.07;;;3.10;;
29570;SDS011;16814;52.118;11.436;2024-02-15T06:31:09;5.95;;;2.72;;
29570;SDS011;16814;52.118;11.436;2024-02-15T06:33:58;8.18;;;3.17;;
29570;SDS011;16814;52.118;11.436;2024-02-15T06:36:48;5.87;;;2.93;;
29570;SDS011;16814;52.118;11.436;2024-02-15T06:39:37;6.50;;;2.80;;
29570;SDS011;16814;52.118;11.436;2024-02-15T06:42:20;4.80;;;3.27;;
29570;SDS011;16814;52.118;11.436;2024-02-15T06:44:48;4.20;;;3.20;;
29570;SDS011;16814;52.118;11.436;2024-02-15T06:47:17;4.78;;;3.40;;
29570;SDS011;16814;52.118;11.436;2024-02-15T06:49:45;4.25;;;3.42;;
29570;SDS011;16814;52.118;11.436;2024-02-15T06:52:19;5.35;;;3.65;;
29570;SDS011;16814;52.118;11.436;2024-02-15T06:54:50;4.53;;;3.58;;
29570;SDS011;16814;52.118;11.436;2024-02-15T06:57:18;6.85;;;4.93;;
29570;SDS011;16814;52.118;11.436;2024-02-15T06:59:46;7.50;;;5.10;;
29570;SDS011;16814;52.118;11.436;2024-02-15T07:02:13;15.13;;;10.05;;
29570;SDS011;16814;52.118;11.436;2024-02-15T07:04:42;9.38;;;6.13;;
29570;SDS011;16814;52.118;11.436;2024-02-15T07:07:12;5.35;;;3.60;;
29570;SDS011;16814;52.118;11.436;2024-02-15T07:09:39;6.73;;;3.20;;
29570;SDS011;16814;52.118;11.436;2024-02-15T07:12:06;4.70;;;3.33;;
29570;SDS011;16814;52.118;11.436;2024-02-15T07:14:34;5.13;;;3.63;;
29570;SDS011;16814;52.118;11.436;2024-02-15T07:16:59;4.73;;;3.57;;
29570;SDS011;16814;52.118;11.436;2024-02-15T07:19:27;5.15;;;3.20;;
29570;SDS011;16814;52.118;11.436;2024-02-15T07:21:58;5.07;;;3.40;;
29570;SDS011;16814;52.118;11.436;2024-02-15T07:24:31;5.07;;;3.40;;
29570;SDS011;16814;52.118;11.436;2024-02-15T07:26:58;12.18;;;7.00;;
29570;SDS011;16814;52.118;11.436;2024-02-15T07:29:24;14.10;;;5.38;;
29570;SDS011;16814;52.118;11.436;2024-02-15T07:31:51;10.70;;;4.60;;
29570;SDS011;16814;52.118;11.436;2024-02-15T07:34:21;11.50;;;3.87;;
29570;SDS011;16814;52.118;11.436;2024-02-15T07:36:54;13.25;;;4.53;;
29570;SDS011;16814;52.118;11.436;2024-02-15T07:39:20;15.43;;;5.23;;
29570;SDS011;16814;52.118;11.436;2024-02-15T07:41:55;9.57;;;4.00;;
29570;SDS011;16814;52.118;11.436;2024-02-15T07:44:31;8.40;;;3.67;;
29570;SDS011;16814;52.118;11.436;2024-02-15T07:47:00;7.15;;;3.45;;
29570;SDS011;16814;52.118;11.436;2024-02-15T07:49:28;6.28;;;3.13;;
29570;SDS011;16814;52.118;11.436;2024-02-15T07:51:55;7.32;;;3.40;;
29570;SDS011;16814;52.118;11.436;2024-02-15T07:54:25;4.65;;;3.17;;
29570;SDS011;16814;52.118;11.436;2024-02-15T07:56:51;9.20;;;3.55;;
29570;SDS011;16814;52.118;11.436;2024-02-15T07:59:18;5.68;;;3.30;;
29570;SDS011;16814;52.118;11.436;2024-02-15T08:01:48;9.50;;;3.40;;
29570;SDS011;16814;52.118;11.436;2024-02-15T08:04:19;6.57;;;3.30;;
29570;SDS011;16814;52.118;11.436;2024-02-15T08:06:46;7.00;;;3.33;;
29570;SDS011;16814;52.118;11.436;2024-02-15T08:09:14;6.63;;;3.20;;
29570;SDS011;16814;52.118;11.436;2024-02-15T08:11:44;3.92;;;2.90;;
29570;SDS011;16814;52.118;11.436;2024-02-15T08:14:10;5.70;;;3.15;;
29570;SDS011;16814;52.118;11.436;2024-02-15T08:16:38;6.25;;;3.20;;
29570;SDS011;16814;52.118;11.436;2024-02-15T08:19:10;6.25;;;2.50;;
29570;SDS011;16814;52.118;11.436;2024-02-15T08:21:37;5.55;;;2.40;;
29570;SDS011;16814;52.118;11.436;2024-02-15T08:24:07;5.40;;;2.72;;
29570;SDS011;16814;52.118;11.436;2024-02-15T08:26:39;5.05;;;2.50;;
29570;SDS011;16814;52.118;11.436;2024-02-15T08:29:07;7.75;;;2.70;;
29570;SDS011;16814;52.118;11.436;2024-02-15T08:31:35;4.25;;;2.40;;
29570;SDS011;16814;52.118;11.436;2024-02-15T08:34:01;5.10;;;2.20;;
29570;SDS011;16814;52.118;11.436;2024-02-15T08:36:35;4.80;;;2.30;;
29570;SDS011;16814;52.118;11.436;2024-02-15T08:39:05;4.88;;;2.58;;
29570;SDS011;16814;52.118;11.436;2024-02-15T08:41:40;5.22;;;2.40;;
29570;SDS011;16814;52.118;11.436;2024-02-15T08:44:07;5.20;;;2.40;;
29570;SDS011;16814;52.118;11.436;2024-02-15T08:46:38;12.48;;;7.03;;
29570;SDS011;16814;52.118;11.436;2024-02-15T08:49:05;7.45;;;3.90;;
29570;SDS011;16814;52.118;11.436;2024-02-15T08:51:31;8.30;;;3.70;;
29570;SDS011;16814;52.118;11.436;2024-02-15T08:53:59;5.68;;;3.03;;
29570;SDS011;16814;52.118;11.436;2024-02-15T08:56:25;7.85;;;2.85;;
29570;SDS011;16814;52.118;11.436;2024-02-15T08:58:53;12.40;;;3.40;;
29570;SDS011;16814;52.118;11.436;2024-02-15T09:01:20;7.10;;;2.88;;
29570;SDS011;16814;52.118;11.436;2024-02-15T09:03:48;6.68;;;2.50;;
29570;SDS011;16814;52.118;11.436;2024-02-15T09:06:15;9.90;;;2.70;;
29570;SDS011;16814;52.118;11.436;2024-02-15T09:08:44;6.70;;;3.15;;
29570;SDS011;16814;52.118;11.436;2024-02-15T09:11:14;9.20;;;2.90;;
29570;SDS011;16814;52.118;11.436;2024-02-15T09:13:43;10.93;;;3.40;;
29570;SDS011;16814;52.118;11.436;2024-02-15T09:16:09;15.43;;;3.65;;
29570;SDS011;16814;52.118;11.436;2024-02-15T09:18:39;10.15;;;3.33;;
29570;SDS011;16814;52.118;11.436;2024-02-15T09:21:10;7.30;;;3.15;;
29570;SDS011;16814;52.118;11.436;2024-02-15T09:23:38;6.90;;;3.00;;
29570;SDS011;16814;52.118;11.436;2024-02-15T09:26:04;4.93;;;2.60;;
29570;SDS011;16814;52.118;11.436;2024-02-15T09:28:30;6.78;;;2.75;;
29570;SDS011;16814;52.118;11.436;2024-02-15T09:30:59;7.00;;;2.78;;
29570;SDS011;16814;52.118;11.436;2024-02-15T09:33:28;6.57;;;2.50;;
29570;SDS011;16814;52.118;11.436;2024-02-15T09:35:55;4.07;;;2.60;;
29570;SDS011;16814;52.118;11.436;2024-02-15T09:38:25;4.32;;;2.83;;
29570;SDS011;16814;52.118;11.436;2024-02-15T09:40:50;9.38;;;2.88;;
29570;SDS011;16814;52.118;11.436;2024-02-15T09:43:17;7.93;;;2.67;;
29570;SDS011;16814;52.118;11.436;2024-02-15T09:45:43;4.57;;;2.60;;
29570;SDS011;16814;52.118;11.436;2024-02-15T09:48:10;4.35;;;2.40;;
29570;SDS011;16814;52.118;11.436;2024-02-15T09:50:39;4.50;;;2.20;;
29570;SDS011;16814;52.118;11.436;2024-02-15T09:53:09;8.38;;;2.80;;
29570;SDS011;16814;52.118;11.436;2024-02-15T09:55:35;5.13;;;2.65;;
29570;SDS011;16814;52.118;11.436;2024-02-15T09:58:14;7.32;;;2.90;;
29570;SDS011;16814;52.118;11.436;2024-02-15T10:00:41;5.25;;;3.00;;
29570;SDS011;16814;52.118;11.436;2024-02-15T10:03:11;5.90;;;3.10;;
29570;SDS011;16814;52.118;11.436;2024-02-15T10:05:49;6.77;;;3.20;;
29570;SDS011;16814;52.118;11.436;2024-02-15T10:08:16;9.57;;;3.30;;
29570;SDS011;16814;52.118;11.436;2024-02-15T10:10:46;8.48;;;3.10;;
29570;SDS011;16814;52.118;11.436;2024-02-15T10:13:18;5.70;;;3.20;;
29570;SDS011;16814;52.118;11.436;2024-02-15T10:15:58;6.15;;;3.10;;
29570;SDS011;16814;52.118;11.436;2024-02-15T10:18:23;5.25;;;2.88;;
29570;SDS011;16814;52.118;11.436;2024-02-15T10:20:57;7.93;;;3.38;;
29570;SDS011;16814;52.118;11.436;2024-02-15T10:23:25;6.38;;;3.45;;
29570;SDS011;16814;52.118;11.436;2024-02-15T10:25:51;6.03;;;3.40;;
29570;SDS011;16814;52.118;11.436;2024-02-15T10:28:22;6.13;;;3.50;;
29570;SDS011;16814;52.118;11.436;2024-02-15T10:30:51;5.23;;;3.13;;
29570;SDS011;16814;52.118;11.436;2024-02-15T10:33:19;7.60;;;3.50;;
29570;SDS011;16814;52.118;11.436;2024-02-15T10:36:10;6.10;;;3.30;;
29570;SDS011;16814;52.118;11.436;2024-02-15T10:38:39;5.28;;;3.15;;
29570;SDS011;16814;52.118;11.436;2024-02-15T10:41:09;6.18;;;2.80;;
29570;SDS011;16814;52.118;11.436;2024-02-15T10:43:38;4.63;;;2.80;;
29570;SDS011;16814;52.118;11.436;2024-02-15T10:46:08;7.78;;;2.85;;
29570;SDS011;16814;52.118;11.436;2024-02-15T10:48:38;6.27;;;2.70;;
29570;SDS011;16814;52.118;11.436;2024-02-15T10:51:14;4.63;;;2.35;;
29570;SDS011;16814;52.118;11.436;2024-02-15T10:53:47;5.72;;;2.20;;
29570;SDS011;16814;52.118;11.436;2024-02-15T10:56:25;6.75;;;1.90;;
29570;SDS011;16814;52.118;11.436;2024-02-15T10:59:04;5.10;;;1.90;;
29570;SDS011;16814;52.118;11.436;2024-02-15T11:01:47;5.05;;;1.80;;
29570;SDS011;16814;52.118;11.436;2024-02-15T11:04:21;6.20;;;1.70;;
29570;SDS011;16814;52.118;11.436;2024-02-15T11:06:53;7.65;;;1.80;;
29570;SDS011;16814;52.118;11.436;2024-02-15T11:09:20;5.43;;;1.80;;
29570;SDS011;16814;52.118;11.436;2024-02-15T11:11:48;8.00;;;2.15;;
29570;SDS011;16814;52.118;11.436;2024-02-15T11:14:28;5.43;;;1.90;;
29570;SDS011;16814;52.118;11.436;2024-02-15T11:16:58;5.95;;;1.60;;
29570;SDS011;16814;52.118;11.436;2024-02-15T11:22:11;4.88;;;1.65;;
29570;SDS011;16814;52.118;11.436;2024-02-15T11:24:53;11.48;;;1.90;;
29570;SDS011;16814;52.118;11.436;2024-02-15T11:27:37;8.63;;;1.92;;
29570;SDS011;16814;52.118;11.436;2024-02-15T11:30:08;9.52;;;2.25;;
29570;SDS011;16814;52.118;11.436;2024-02-15T11:35:35;5.83;;;2.20;;
29570;SDS011;16814;52.118;11.436;2024-02-15T11:38:31;13.80;;;3.15;;
29570;SDS011;16814;52.118;11.436;2024-02-15T11:41:01;5.22;;;2.55;;
29570;SDS011;16814;52.118;11.436;2024-02-15T11:43:45;15.13;;;2.60;;
29570;SDS011;16814;52.118;11.436;2024-02-15T11:46:32;3.97;;;2.10;;
29570;SDS011;16814;52.118;11.436;2024-02-15T11:49:00;5.22;;;2.70;;
29570;SDS011;16814;52.118;11.436;2024-02-15T11:51:35;4.82;;;2.53;;
29570;SDS011;16814;52.118;11.436;2024-02-15T11:54:10;5.80;;;2.75;;
29570;SDS011;16814;52.118;11.436;2024-02-15T11:59:13;14.77;;;2.63;;
29570;SDS011;16814;52.118;11.436;2024-02-15T12:01:59;5.50;;;2.42;;
29570;SDS011;16814;52.118;11.436;2024-02-15T12:04:46;7.43;;;2.55;;
29570;SDS011;16814;52.118;11.436;2024-02-15T12:07:32;8.15;;;2.33;;
29570;SDS011;16814;52.118;11.436;2024-02-15T12:10:29;6.90;;;2.58;;
29570;SDS011;16814;52.118;11.436;2024-02-15T12:13:18;6.95;;;2.30;;
29570;SDS011;16814;52.118;11.436;2024-02-15T12:16:08;8.65;;;2.60;;
29570;SDS011;16814;52.118;11.436;2024-02-15T12:18:53;8.18;;;2.33;;
29570;SDS011;16814;52.118;11.436;2024-02-15T12:21:21;6.43;;;2.20;;
29570;SDS011;16814;52.118;11.436;2024-02-15T12:27:20;5.45;;;2.35;;
29570;SDS011;16814;52.118;11.436;2024-02-15T12:29:56;5.22;;;2.40;;
29570;SDS011;16814;52.118;11.436;2024-02-15T12:32:25;6.13;;;1.95;;
29570;SDS011;16814;52.118;11.436;2024-02-15T12:35:01;6.70;;;2.20;;
29570;SDS011;16814;52.118;11.436;2024-02-15T12:37:42;6.00;;;2.28;;
29570;SDS011;16814;52.118;11.436;2024-02-15T12:42:45;9.60;;;2.80;;
29570;SDS011;16814;52.118;11.436;2024-02-15T12:45:20;6.03;;;2.70;;
29570;SDS011;16814;52.118;11.436;2024-02-15T12:47:58;8.97;;;3.40;;
29570;SDS011;16814;52.118;11.436;2024-02-15T12:50:30;9.68;;;3.13;;
29570;SDS011;16814;52.118;11.436;2024-02-15T12:52:57;16.58;;;3.10;;
29570;SDS011;16814;52.118;11.436;2024-02-15T12:55:34;7.65;;;2.78;;
29570;SDS011;16814;52.118;11.436;2024-02-15T12:58:12;6.93;;;2.95;;
29570;SDS011;16814;52.118;11.436;2024-02-15T13:00:40;9.82;;;2.80;;
29570;SDS011;16814;52.118;11.436;2024-02-15T13:03:07;6.43;;;2.83;;
29570;SDS011;16814;52.118;11.436;2024-02-15T13:05:39;4.60;;;2.67;;
29570;SDS011;16814;52.118;11.436;2024-02-15T13:08:07;6.73;;;2.77;;
29570;SDS011;16814;52.118;11.436;2024-02-15T13:10:40;8.93;;;3.00;;
29570;SDS011;16814;52.118;11.436;2024-02-15T13:13:11;6.43;;;3.10;;
29570;SDS011;16814;52.118;11.436;2024-02-15T13:15:40;7.18;;;2.92;;
29570;SDS011;16814;52.118;11.436;2024-02-15T13:18:06;8.15;;;3.05;;
29570;SDS011;16814;52.118;11.436;2024-02-15T13:20:37;10.53;;;3.03;;
29570;SDS011;16814;52.118;11.436;2024-02-15T13:23:04;7.95;;;2.90;;
29570;SDS011;16814;52.118;11.436;2024-02-15T13:25:44;5.60;;;2.95;;
29570;SDS011;16814;52.118;11.436;2024-02-15T13:28:12;4.50;;;2.67;;
29570;SDS011;16814;52.118;11.436;2024-02-15T13:30:40;7.68;;;2.83;;
29570;SDS011;16814;52.118;11.436;2024-02-15T13:33:09;8.88;;;3.03;;
29570;SDS011;16814;52.118;11.436;2024-02-15T13:35:38;7.32;;;2.95;;
29570;SDS011;16814;52.118;11.436;2024-02-15T13:38:06;9.30;;;3.10;;
29570;SDS011;16814;52.118;11.436;2024-02-15T13:40:34;9.27;;;3.00;;
29570;SDS011;16814;52.118;11.436;2024-02-15T13:43:03;14.57;;;2.70;;
29570;SDS011;16814;52.118;11.436;2024-02-15T13:45:40;9.73;;;3.00;;
29570;SDS011;16814;52.118;11.436;2024-02-15T13:48:09;6.78;;;3.10;;
29570;SDS011;16814;52.118;11.436;2024-02-15T13:50:42;9.45;;;2.83;;
29570;SDS011;16814;52.118;11.436;2024-02-15T13:53:09;9.90;;;2.80;;
29570;SDS011;16814;52.118;11.436;2024-02-15T13:55:36;7.57;;;2.50;;
29570;SDS011;16814;52.118;11.436;2024-02-15T13:58:03;14.15;;;2.90;;
29570;SDS011;16814;52.118;11.436;2024-02-15T14:00:33;7.05;;;2.40;;
29570;SDS011;16814;52.118;11.436;2024-02-15T14:03:02;7.55;;;2.50;;
29570;SDS011;16814;52.118;11.436;2024-02-15T14:05:31;6.70;;;2.60;;
29570;SDS011;16814;52.118;11.436;2024-02-15T14:08:00;8.27;;;2.80;;
29570;SDS011;16814;52.118;11.436;2024-02-15T14:10:48;11.90;;;2.85;;
29570;SDS011;16814;52.118;11.436;2024-02-15T14:13:16;13.60;;;2.75;;
29570;SDS011;16814;52.118;11.436;2024-02-15T14:15:43;11.55;;;2.60;;
29570;SDS011;16814;52.118;11.436;2024-02-15T14:18:10;7.20;;;2.67;;
29570;SDS011;16814;52.118;11.436;2024-02-15T14:20:45;5.95;;;2.47;;
29570;SDS011;16814;52.118;11.436;2024-02-15T14:23:13;10.73;;;2.65;;
29570;SDS011;16814;52.118;11.436;2024-02-15T14:25:44;7.65;;;2.67;;
29570;SDS011;16814;52.118;11.436;2024-02-15T14:28:12;7.93;;;2.97;;
29570;SDS011;16814;52.118;11.436;2024-02-15T14:30:40;11.55;;;6.43;;
29570;SDS011;16814;52.118;11.436;2024-02-15T14:33:27;9.13;;;3.63;;
29570;SDS011;16814;52.118;11.436;2024-02-15T14:35:55;10.48;;;2.45;;
29570;SDS011;16814;52.118;11.436;2024-02-15T14:38:22;7.05;;;2.50;;
29570;SDS011;16814;52.118;11.436;2024-02-15T14:40:51;9.95;;;2.45;;
29570;SDS011;16814;52.118;11.436;2024-02-15T14:43:21;8.13;;;2.60;;
29570;SDS011;16814;52.118;11.436;2024-02-15T14:45:52;8.27;;;2.50;;
29570;SDS011;16814;52.118;11.436;2024-02-15T14:48:22;6.72;;;2.50;;
29570;SDS011;16814;52.118;11.436;2024-02-15T14:50:51;7.28;;;2.80;;
29570;SDS011;16814;52.118;11.436;2024-02-15T14:53:19;6.30;;;2.50;;
29570;SDS011;16814;52.118;11.436;2024-02-15T14:55:47;10.90;;;5.28;;
29570;SDS011;16814;52.118;11.436;2024-02-15T14:58:17;9.13;;;4.40;;
29570;SDS011;16814;52.118;11.436;2024-02-15T15:00:46;8.35;;;4.25;;
29570;SDS011;16814;52.118;11.436;2024-02-15T15:03:13;11.82;;;3.60;;
29570;SDS011;16814;52.118;11.436;2024-02-15T15:05:40;8.23;;;3.22;;